createdAt,value
2022-08-16T00:01:56.376Z,100.00
2022-08-16T00:04:27.950Z,100.00
2022-08-16T00:06:56.809Z,100.00
2022-08-16T00:09:26.173Z,100.00
2022-08-16T00:11:55.584Z,100.00
2022-08-16T00:14:29.107Z,100.00
2022-08-16T00:17:15.497Z,100.00
2022-08-16T00:19:46.837Z,100.00
2022-08-16T00:22:24.860Z,100.00
2022-08-16T00:24:55.061Z,100.00
2022-08-16T00:27:23.440Z,100.00
2022-08-16T00:30:08.820Z,100.00
2022-08-16T00:32:42.584Z,100.00
2022-08-16T00:35:16.109Z,100.00
2022-08-16T00:37:57.587Z,100.00
2022-08-16T00:40:34.254Z,100.00
2022-08-16T00:43:04.480Z,100.00
2022-08-16T00:45:58.498Z,100.00
2022-08-16T00:48:31.764Z,100.00
2022-08-16T00:51:01.145Z,100.00
2022-08-16T00:53:30.653Z,100.00
2022-08-16T00:56:05.200Z,100.00
2022-08-16T00:58:35.942Z,100.00
2022-08-16T01:01:08.353Z,100.00
2022-08-16T01:03:41.609Z,100.00
2022-08-16T01:06:32.571Z,100.00
2022-08-16T01:09:00.432Z,100.00
2022-08-16T01:11:30.005Z,100.00
2022-08-16T01:14:03.803Z,100.00
2022-08-16T01:16:32.232Z,100.00
2022-08-16T01:19:04.576Z,100.00
2022-08-16T01:21:39.802Z,100.00
2022-08-16T01:24:52.760Z,100.00
2022-08-16T01:27:17.402Z,100.00
2022-08-16T01:29:58.181Z,100.00
2022-08-16T01:32:33.615Z,100.00
2022-08-16T01:35:04.607Z,100.00
2022-08-16T01:37:40.532Z,100.00
2022-08-16T01:40:13.610Z,100.00
2022-08-16T01:42:44.663Z,100.00
2022-08-16T01:45:19.669Z,100.00
2022-08-16T01:47:51.166Z,100.00
2022-08-16T01:51:07.908Z,100.00
2022-08-16T01:53:11.058Z,100.00
2022-08-16T01:55:42.777Z,100.00
2022-08-16T01:58:22.445Z,100.00
2022-08-16T02:00:50.286Z,100.00
2022-08-16T02:03:18.764Z,100.00
2022-08-16T02:05:52.501Z,100.00
2022-08-16T02:08:32.990Z,100.00
2022-08-16T02:11:05.069Z,100.00
2022-08-16T02:13:33.138Z,100.00
2022-08-16T02:16:01.252Z,100.00
2022-08-16T02:18:29.289Z,100.00
2022-08-16T02:20:57.146Z,100.00
2022-08-16T02:23:27.269Z,100.00
2022-08-16T02:25:59.522Z,100.00
2022-08-16T02:28:29.365Z,100.00
2022-08-16T02:31:00.538Z,100.00
2022-08-16T02:33:43.510Z,100.00
2022-08-16T02:36:50.725Z,100.00
2022-08-16T02:39:06.934Z,100.00
2022-08-16T02:41:37.359Z,100.00
2022-08-16T02:44:11.001Z,100.00
2022-08-16T02:46:41.730Z,100.00
2022-08-16T02:49:19.450Z,100.00
2022-08-16T02:51:48.228Z,100.00
2022-08-16T02:54:18.030Z,100.00
2022-08-16T02:56:47.804Z,100.00
2022-08-16T02:59:17.181Z,100.00
2022-08-16T03:01:47.047Z,100.00
2022-08-16T03:04:39.588Z,100.00
2022-08-16T03:07:06.186Z,100.00
2022-08-16T03:09:34.092Z,100.00
2022-08-16T03:12:03.809Z,100.00
2022-08-16T03:14:33.891Z,100.00
2022-08-16T03:17:02.293Z,100.00
2022-08-16T03:19:47.023Z,100.00
2022-08-16T03:22:27.839Z,100.00
2022-08-16T03:24:58.390Z,100.00
2022-08-16T03:27:31.261Z,100.00
2022-08-16T03:30:16.396Z,100.00
2022-08-16T03:32:47.404Z,100.00
2022-08-16T03:35:17.415Z,100.00
2022-08-16T03:38:01.634Z,100.00
2022-08-16T03:40:33.873Z,100.00
2022-08-16T03:43:20.366Z,100.00
2022-08-16T03:45:52.931Z,100.00
2022-08-16T03:48:36.677Z,100.00
2022-08-16T03:51:08.010Z,100.00
2022-08-16T03:53:38.103Z,100.00
2022-08-16T03:56:07.610Z,100.00
2022-08-16T03:58:45.477Z,100.00
2022-08-16T04:01:17.535Z,100.00
2022-08-16T04:03:45.308Z,100.00
2022-08-16T04:06:13.867Z,100.00
2022-08-16T04:08:43.636Z,100.00
2022-08-16T04:11:16.559Z,100.00
2022-08-16T04:13:59.456Z,100.00
2022-08-16T04:16:35.239Z,100.00
2022-08-16T04:19:04.360Z,100.00
2022-08-16T04:21:33.287Z,100.00
2022-08-16T04:24:03.513Z,100.00
2022-08-16T04:26:35.733Z,100.00
2022-08-16T04:29:16.728Z,100.00
2022-08-16T04:31:56.740Z,100.00
2022-08-16T04:34:27.830Z,100.00
2022-08-16T04:36:56.666Z,100.00
2022-08-16T04:39:25.197Z,100.00
2022-08-16T04:42:11.359Z,100.00
2022-08-16T04:44:53.435Z,100.00
2022-08-16T04:47:31.454Z,100.00
2022-08-16T04:50:00.950Z,100.00
2022-08-16T04:52:33.622Z,100.00
2022-08-16T04:55:06.156Z,100.00
2022-08-16T04:57:34.156Z,100.00
2022-08-16T05:00:30.888Z,100.00
2022-08-16T05:02:54.903Z,100.00
2022-08-16T05:05:24.441Z,100.00
2022-08-16T05:07:59.466Z,100.00
2022-08-16T05:10:28.419Z,100.00
2022-08-16T05:12:57.569Z,100.00
2022-08-16T05:15:25.570Z,100.00
2022-08-16T05:17:58.610Z,100.00
2022-08-16T05:20:38.531Z,100.00
2022-08-16T05:23:14.167Z,100.00
2022-08-16T05:25:48.194Z,100.00
2022-08-16T05:28:16.888Z,100.00
2022-08-16T05:30:44.795Z,100.00
2022-08-16T05:33:16.475Z,100.00
2022-08-16T05:35:44.780Z,100.00
2022-08-16T05:38:32.681Z,100.00
2022-08-16T05:41:09.452Z,100.00
2022-08-16T05:43:43.329Z,100.00
2022-08-16T05:46:30.611Z,100.00
2022-08-16T05:49:08.699Z,100.00
2022-08-16T05:51:40.242Z,100.00
2022-08-16T05:54:11.277Z,100.00
2022-08-16T05:56:39.598Z,100.00
2022-08-16T05:59:08.508Z,100.00
2022-08-16T06:01:37.869Z,100.00
2022-08-16T06:04:12.766Z,100.00
2022-08-16T06:06:43.357Z,100.00
2022-08-16T06:09:23.942Z,100.00
2022-08-16T06:11:51.967Z,100.00
2022-08-16T06:14:20.723Z,100.00
2022-08-16T06:16:50.740Z,100.00
2022-08-16T06:19:20.297Z,100.00
2022-08-16T06:21:55.322Z,100.00
2022-08-16T06:24:54.702Z,100.00
2022-08-16T06:27:11.899Z,100.00
2022-08-16T06:29:40.859Z,100.00
2022-08-16T06:32:11.559Z,100.00
2022-08-16T06:35:02.335Z,100.00
2022-08-16T06:37:37.317Z,100.00
2022-08-16T06:40:12.897Z,100.00
2022-08-16T06:42:47.459Z,100.00
2022-08-16T06:45:16.279Z,100.00
2022-08-16T06:47:53.338Z,100.00
2022-08-16T06:50:28.529Z,100.00
2022-08-16T06:52:59.732Z,100.00
2022-08-16T06:55:33.737Z,100.00
2022-08-16T06:58:08.375Z,100.00
2022-08-16T07:00:37.529Z,100.00
2022-08-16T07:03:26.714Z,100.00
2022-08-16T07:05:57.126Z,100.00
2022-08-16T07:08:25.102Z,100.00
2022-08-16T07:10:55.947Z,100.00
2022-08-16T07:14:03.654Z,100.00
2022-08-16T07:16:16.713Z,100.00
2022-08-16T07:18:58.887Z,100.00
2022-08-16T07:21:46.161Z,100.00
2022-08-16T07:24:30.262Z,100.00
2022-08-16T07:27:00.732Z,100.00
2022-08-16T07:29:31.778Z,100.00
2022-08-16T07:32:00.769Z,100.00
2022-08-16T07:34:35.036Z,100.00
2022-08-16T07:37:09.624Z,100.00
2022-08-16T07:39:43.388Z,100.00
2022-08-16T07:42:25.861Z,100.00
2022-08-16T07:44:57.666Z,100.00
2022-08-16T07:47:31.897Z,100.00
2022-08-16T07:50:00.007Z,100.00
2022-08-16T07:52:34.732Z,100.00
2022-08-16T07:55:07.737Z,99.86
2022-08-16T07:57:38.173Z,92.84
2022-08-16T08:00:26.361Z,95.86
2022-08-16T08:02:55.570Z,93.82
2022-08-16T08:05:35.685Z,96.05
2022-08-16T08:08:11.962Z,94.30
2022-08-16T08:10:53.963Z,94.88
2022-08-16T08:13:41.761Z,93.65
2022-08-16T08:16:18.252Z,89.72
2022-08-16T08:18:50.164Z,93.41
2022-08-16T08:21:27.322Z,90.19
2022-08-16T08:23:57.657Z,90.24
2022-08-16T08:26:25.979Z,86.50
2022-08-16T08:28:54.618Z,85.92
2022-08-16T08:31:29.810Z,83.38
2022-08-16T08:33:59.939Z,79.90
2022-08-16T08:36:33.306Z,83.00
2022-08-16T08:39:03.061Z,81.74
2022-08-16T08:41:42.435Z,79.75
2022-08-16T08:44:29.272Z,79.62
2022-08-16T08:47:01.831Z,79.58
2022-08-16T08:49:46.449Z,76.29
2022-08-16T08:52:47.815Z,78.60
2022-08-16T08:55:12.676Z,75.87
2022-08-16T08:57:41.822Z,74.63
2022-08-16T09:00:13.041Z,74.07
2022-08-16T09:02:42.584Z,74.32
2022-08-16T09:05:15.421Z,72.60
2022-08-16T09:08:00.522Z,71.50
2022-08-16T09:10:31.312Z,72.72
2022-08-16T09:12:59.658Z,66.45
2022-08-16T09:15:32.892Z,63.25
2022-08-16T09:18:25.417Z,64.49
2022-08-16T09:20:59.694Z,62.22
2022-08-16T09:23:29.080Z,61.89
2022-08-16T09:25:58.514Z,61.21
2022-08-16T09:29:15.408Z,59.10
2022-08-16T09:31:15.203Z,61.74
2022-08-16T09:33:44.432Z,59.11
2022-08-16T09:36:32.765Z,60.10
2022-08-16T09:39:02.407Z,57.38
2022-08-16T09:41:32.181Z,57.46
2022-08-16T09:45:08.981Z,58.74
2022-08-16T09:46:49.946Z,58.28
2022-08-16T09:49:20.240Z,56.55
2022-08-16T09:51:54.473Z,55.05
2022-08-16T09:54:24.675Z,54.82
2022-08-16T09:57:01.984Z,54.76
2022-08-16T09:59:31.211Z,51.14
2022-08-16T10:02:27.367Z,52.27
2022-08-16T10:04:55.377Z,51.25
2022-08-16T10:07:23.293Z,50.73
2022-08-16T10:09:54.912Z,50.93
2022-08-16T10:12:44.370Z,50.62
2022-08-16T10:15:15.174Z,51.53
2022-08-16T10:17:45.444Z,49.57
2022-08-16T10:20:29.372Z,51.02
2022-08-16T10:23:05.453Z,49.92
2022-08-16T10:27:19.264Z,48.04
2022-08-16T10:28:30.019Z,47.22
2022-08-16T10:31:00.320Z,48.67
2022-08-16T10:33:33.235Z,46.16
2022-08-16T10:36:03.864Z,46.20
2022-08-16T10:38:33.148Z,44.97
2022-08-16T10:41:04.533Z,45.27
2022-08-16T10:43:33.795Z,44.24
2022-08-16T10:46:03.365Z,43.16
2022-08-16T10:48:51.039Z,44.33
2022-08-16T10:51:19.744Z,43.96
2022-08-16T10:53:47.513Z,43.00
2022-08-16T10:56:52.168Z,44.37
2022-08-16T11:07:45.586Z,43.75
2022-08-16T11:10:20.398Z,41.35
2022-08-16T11:12:49.009Z,41.89
2022-08-16T11:15:22.185Z,41.73
2022-08-16T11:20:49.307Z,43.84
2022-08-16T11:23:18.581Z,43.78
2022-08-16T11:26:16.439Z,43.79
2022-08-16T11:29:12.549Z,43.34
2022-08-16T11:31:26.501Z,43.11
2022-08-16T11:33:55.046Z,42.47
2022-08-16T11:36:24.773Z,44.03
2022-08-16T11:38:57.642Z,42.97
2022-08-16T11:41:26.577Z,42.95
2022-08-16T11:43:58.623Z,40.24
2022-08-16T11:46:44.973Z,41.44
2022-08-16T11:49:14.279Z,40.77
2022-08-16T11:51:43.951Z,38.46
2022-08-16T11:54:20.108Z,39.05
2022-08-16T11:56:53.224Z,37.72
2022-08-16T11:59:28.856Z,37.44
2022-08-16T12:02:31.589Z,38.80
2022-08-16T12:04:47.125Z,39.59
2022-08-16T12:07:20.521Z,39.57
2022-08-16T12:09:53.290Z,39.10
2022-08-16T12:12:23.534Z,37.53
2022-08-16T12:14:59.484Z,37.68
2022-08-16T12:17:31.723Z,38.48
2022-08-16T12:20:00.074Z,40.03
2022-08-16T12:22:28.254Z,39.13
2022-08-16T12:24:56.436Z,39.74
2022-08-16T12:27:25.674Z,38.77
2022-08-16T12:29:54.183Z,37.02
2022-08-16T12:32:35.977Z,36.84
2022-08-16T12:35:10.565Z,37.60
2022-08-16T12:37:38.813Z,35.77
2022-08-16T12:40:23.679Z,35.97
2022-08-16T12:42:54.090Z,37.10
2022-08-16T12:45:23.975Z,37.14
2022-08-16T12:48:33.269Z,36.74
2022-08-16T12:51:01.219Z,36.63
2022-08-16T12:53:32.001Z,38.57
2022-08-16T12:56:00.210Z,37.69
2022-08-16T12:58:49.442Z,36.12
2022-08-16T13:01:16.190Z,36.29
2022-08-16T13:03:44.131Z,36.23
2022-08-16T13:06:13.602Z,36.29
2022-08-16T13:08:47.725Z,36.13
2022-08-16T13:11:17.845Z,35.74
2022-08-16T13:13:45.616Z,35.71
2022-08-16T13:16:20.047Z,35.25
2022-08-16T13:18:51.619Z,34.97
2022-08-16T13:21:23.489Z,34.18
2022-08-16T13:23:53.448Z,34.20
2022-08-16T13:26:24.412Z,35.56
2022-08-16T13:28:54.356Z,34.57
2022-08-16T13:31:23.870Z,34.73
2022-08-16T13:33:54.612Z,34.09
2022-08-16T13:39:17.178Z,34.78
2022-08-16T13:41:45.278Z,34.25
2022-08-16T13:44:22.172Z,33.38
2022-08-16T13:47:09.889Z,34.41
2022-08-16T13:49:37.638Z,34.70
2022-08-16T13:52:09.731Z,35.07
2022-08-16T13:54:37.866Z,35.89
2022-08-16T13:57:05.924Z,37.24
2022-08-16T13:59:34.567Z,37.32
2022-08-16T14:02:04.044Z,35.65
2022-08-16T14:04:35.293Z,36.92
2022-08-16T14:07:07.333Z,37.19
2022-08-16T14:09:37.594Z,35.92
2022-08-16T14:12:09.715Z,36.42
2022-08-16T14:14:45.349Z,37.03
2022-08-16T14:17:14.807Z,37.24
2022-08-16T14:19:45.264Z,37.54
2022-08-16T14:22:30.330Z,37.32
2022-08-16T14:25:03.003Z,37.32
2022-08-16T14:27:31.882Z,37.56
2022-08-16T14:30:01.491Z,37.03
2022-08-16T14:32:33.336Z,37.24
2022-08-16T14:35:04.264Z,36.69
2022-08-16T14:37:32.121Z,36.66
2022-08-16T14:40:03.255Z,36.63
2022-08-16T14:42:31.713Z,36.71
2022-08-16T14:45:00.409Z,36.97
2022-08-16T14:47:34.117Z,38.12
2022-08-16T14:50:02.989Z,36.64
2022-08-16T14:55:23.386Z,35.51
2022-08-16T14:57:52.792Z,36.05
2022-08-16T15:00:32.727Z,35.02
2022-08-16T15:03:02.927Z,35.59
2022-08-16T15:05:32.613Z,35.41
2022-08-16T15:08:00.568Z,35.09
2022-08-16T15:10:32.181Z,36.48
2022-08-16T15:13:01.192Z,35.52
2022-08-16T15:15:30.610Z,36.65
2022-08-16T15:18:01.876Z,36.02
2022-08-16T15:20:33.546Z,36.41
2022-08-16T15:23:04.848Z,36.50
2022-08-16T15:25:35.925Z,36.36
2022-08-16T15:28:23.551Z,36.47
2022-08-16T15:31:00.894Z,36.69
2022-08-16T15:33:33.135Z,36.51
2022-08-16T15:36:02.303Z,36.93
2022-08-16T15:39:02.554Z,36.68
2022-08-16T15:42:01.096Z,37.57
2022-08-16T15:44:38.908Z,37.18
2022-08-16T15:47:19.518Z,37.44
2022-08-16T15:49:53.122Z,36.60
2022-08-16T15:52:29.673Z,36.57
2022-08-16T15:55:00.164Z,36.33
2022-08-16T15:57:36.916Z,36.95
2022-08-16T16:00:14.801Z,36.49
2022-08-16T16:02:44.456Z,36.42
2022-08-16T16:05:12.718Z,35.58
2022-08-16T16:07:56.275Z,36.12
2022-08-16T16:10:30.038Z,35.48
2022-08-16T16:13:00.826Z,35.88
2022-08-16T16:15:33.489Z,36.29
2022-08-16T16:18:05.256Z,35.64
2022-08-16T16:20:39.155Z,34.85
2022-08-16T16:23:11.090Z,35.12
2022-08-16T16:25:39.742Z,35.28
2022-08-16T16:28:51.364Z,33.95
2022-08-16T16:31:04.640Z,33.73
2022-08-16T16:33:36.862Z,33.83
2022-08-16T16:36:07.020Z,34.42
2022-08-16T16:38:35.429Z,34.90
2022-08-16T16:41:09.361Z,34.95
2022-08-16T16:43:41.826Z,34.56
2022-08-16T16:46:41.071Z,35.75
2022-08-16T16:48:58.558Z,34.26
2022-08-16T16:51:27.951Z,35.31
2022-08-16T16:53:57.062Z,34.49
2022-08-16T16:56:31.409Z,34.09
2022-08-16T16:59:07.033Z,34.22
2022-08-16T17:01:59.921Z,33.24
2022-08-16T17:04:32.666Z,32.20
2022-08-16T17:07:02.430Z,31.69
2022-08-16T17:09:30.970Z,29.47
2022-08-16T17:11:59.499Z,28.13
2022-08-16T17:14:33.136Z,27.66
2022-08-16T17:17:06.664Z,29.11
2022-08-16T17:19:41.324Z,32.32
2022-08-16T17:22:14.235Z,34.70
2022-08-16T17:24:45.106Z,36.82
2022-08-16T17:27:17.714Z,38.36
2022-08-16T17:29:51.512Z,39.95
2022-08-16T17:32:44.675Z,40.12
2022-08-16T17:35:18.315Z,40.71
2022-08-16T17:38:05.923Z,41.97
2022-08-16T17:40:55.096Z,42.41
2022-08-16T17:43:27.366Z,44.58
2022-08-16T17:46:04.341Z,46.98
2022-08-16T17:48:35.413Z,47.53
2022-08-16T17:51:04.268Z,49.24
2022-08-16T17:53:32.847Z,51.41
2022-08-16T17:56:01.404Z,49.66
2022-08-16T17:58:29.154Z,46.26
2022-08-16T18:00:59.837Z,50.55
2022-08-16T18:03:40.853Z,52.55
2022-08-16T18:06:25.370Z,54.94
2022-08-16T18:09:01.645Z,56.35
2022-08-16T18:11:33.744Z,58.08
2022-08-16T18:14:01.732Z,59.08
2022-08-16T18:16:29.741Z,61.60
2022-08-16T18:18:59.195Z,63.68
2022-08-16T18:21:44.758Z,63.84
2022-08-16T18:24:14.855Z,64.52
2022-08-16T18:26:42.721Z,67.75
2022-08-16T18:29:10.920Z,74.48
2022-08-16T18:31:39.659Z,77.48
2022-08-16T18:34:09.540Z,83.90
2022-08-16T18:36:38.160Z,85.39
2022-08-16T18:39:06.429Z,88.44
2022-08-16T18:41:37.046Z,93.50
2022-08-16T18:44:25.265Z,98.60
2022-08-16T18:46:55.667Z,100.00
2022-08-16T18:49:25.028Z,100.00
2022-08-16T18:51:57.852Z,100.00
2022-08-16T18:54:26.237Z,100.00
2022-08-16T18:56:57.451Z,100.00
2022-08-16T18:59:28.175Z,100.00
2022-08-16T19:02:00.291Z,100.00
2022-08-16T19:04:57.186Z,100.00
2022-08-16T19:07:29.647Z,100.00
2022-08-16T19:10:00.415Z,100.00
2022-08-16T19:12:38.437Z,100.00
2022-08-16T19:15:13.618Z,100.00
2022-08-16T19:17:42.625Z,100.00
2022-08-16T19:20:13.671Z,100.00
2022-08-16T19:25:47.090Z,100.00
2022-08-16T19:28:50.115Z,100.00
2022-08-16T19:31:08.855Z,100.00
2022-08-16T19:33:37.022Z,100.00
2022-08-16T19:36:07.050Z,100.00
2022-08-16T19:38:39.681Z,100.00
2022-08-16T19:41:07.910Z,100.00
2022-08-16T19:43:35.768Z,100.00
2022-08-16T19:46:05.106Z,100.00
2022-08-16T19:48:33.044Z,100.00
2022-08-16T19:51:01.432Z,100.00
2022-08-16T19:53:30.758Z,100.00
2022-08-16T19:55:58.762Z,100.00
2022-08-16T19:58:26.698Z,100.00
2022-08-16T20:00:56.423Z,100.00
2022-08-16T20:03:25.321Z,100.00
2022-08-16T20:05:53.880Z,100.00
2022-08-16T20:08:22.473Z,100.00
2022-08-16T20:10:51.832Z,100.00
2022-08-16T20:13:22.294Z,100.00
2022-08-16T20:15:51.253Z,100.00
2022-08-16T20:18:22.870Z,100.00
2022-08-16T20:20:55.750Z,100.00
2022-08-16T20:23:25.210Z,100.00
2022-08-16T20:25:56.561Z,100.00
2022-08-16T20:28:39.658Z,100.00
2022-08-16T20:31:12.980Z,100.00
2022-08-16T20:33:41.116Z,100.00
2022-08-16T20:36:16.331Z,100.00
2022-08-16T20:38:47.168Z,100.00
2022-08-16T20:41:18.693Z,100.00
2022-08-16T20:43:47.723Z,100.00
2022-08-16T20:46:15.877Z,100.00
2022-08-16T20:48:43.953Z,100.00
2022-08-16T20:51:12.951Z,100.00
2022-08-16T20:53:42.197Z,100.00
2022-08-16T20:56:11.165Z,100.00
2022-08-16T20:58:40.709Z,100.00
2022-08-16T21:01:09.454Z,100.00
2022-08-16T21:03:37.416Z,100.00
2022-08-16T21:06:05.871Z,100.00
2022-08-16T21:08:53.183Z,100.00
2022-08-16T21:11:21.927Z,100.00
2022-08-16T21:13:51.361Z,100.00
2022-08-16T21:16:25.469Z,100.00
2022-08-16T21:18:56.128Z,100.00
2022-08-16T21:21:23.934Z,100.00
2022-08-16T21:23:59.422Z,100.00
2022-08-16T21:26:27.463Z,100.00
2022-08-16T21:28:58.096Z,100.00
2022-08-16T21:31:26.408Z,100.00
2022-08-16T21:33:55.120Z,100.00
2022-08-16T21:36:35.307Z,100.00
2022-08-16T21:39:06.192Z,100.00
2022-08-16T21:41:34.273Z,100.00
2022-08-16T21:44:03.697Z,100.00
2022-08-16T21:46:33.681Z,100.00
2022-08-16T21:49:01.550Z,100.00
2022-08-16T21:51:29.423Z,100.00
2022-08-16T21:53:57.318Z,100.00
2022-08-16T21:56:25.187Z,100.00
2022-08-16T21:58:53.716Z,100.00
2022-08-16T22:01:23.773Z,100.00
2022-08-16T22:04:35.369Z,100.00
2022-08-16T22:06:41.865Z,100.00
2022-08-16T22:09:10.983Z,100.00
2022-08-16T22:11:39.690Z,100.00
2022-08-16T22:14:07.905Z,100.00
2022-08-16T22:16:40.059Z,100.00
2022-08-16T22:19:07.850Z,100.00
2022-08-16T22:21:36.263Z,100.00
2022-08-16T22:24:04.764Z,100.00
2022-08-16T22:26:39.616Z,100.00
2022-08-16T22:29:12.507Z,100.00
2022-08-16T22:31:43.489Z,100.00
2022-08-16T22:34:11.848Z,100.00
2022-08-16T22:36:40.231Z,100.00
2022-08-16T22:39:10.100Z,100.00
2022-08-16T22:41:39.909Z,100.00
2022-08-16T22:44:08.128Z,100.00
2022-08-16T22:46:37.622Z,100.00
2022-08-16T22:49:07.530Z,100.00
2022-08-16T22:51:37.311Z,100.00
2022-08-16T22:54:41.422Z,100.00
2022-08-16T22:56:54.188Z,100.00
2022-08-16T22:59:24.830Z,100.00
2022-08-16T23:07:01.043Z,100.00
2022-08-16T23:09:29.660Z,100.00
2022-08-16T23:11:57.458Z,100.00
2022-08-16T23:14:25.230Z,100.00
2022-08-16T23:16:52.940Z,100.00
2022-08-16T23:19:20.707Z,100.00
2022-08-16T23:21:49.358Z,100.00
2022-08-16T23:24:20.428Z,100.00
2022-08-16T23:26:49.263Z,100.00
2022-08-16T23:29:23.973Z,100.00
2022-08-16T23:31:55.469Z,100.00
2022-08-16T23:34:23.596Z,100.00
2022-08-16T23:36:51.441Z,100.00
2022-08-16T23:39:20.898Z,100.00
2022-08-16T23:41:48.679Z,100.00
2022-08-16T23:44:56.665Z,100.00
2022-08-16T23:47:06.335Z,100.00
2022-08-16T23:49:58.239Z,100.00
2022-08-16T23:52:53.549Z,100.00
2022-08-16T23:55:11.610Z,100.00
2022-08-16T23:57:39.451Z,100.00
